createdAt,value
2018-04-15T00:00:50.349Z,5.17
2018-04-15T00:03:17.865Z,4.93
2018-04-15T00:05:45.733Z,5.17
2018-04-15T00:08:13.274Z,4.90
2018-04-15T00:10:41.587Z,5.70
2018-04-15T00:13:09.365Z,5.60
2018-04-15T00:15:36.918Z,5.17
2018-04-15T00:18:04.429Z,5.17
2018-04-15T00:20:32.762Z,5.50
2018-04-15T00:23:00.299Z,5.27
2018-04-15T00:25:28.798Z,5.00
2018-04-15T00:27:56.334Z,5.03
2018-04-15T00:30:23.950Z,5.00
2018-04-15T00:32:51.961Z,4.90
2018-04-15T00:35:21.601Z,5.70
2018-04-15T00:37:49.543Z,5.07
2018-04-15T00:40:17.888Z,5.70
2018-04-15T00:42:45.434Z,5.73
2018-04-15T00:45:12.962Z,5.60
2018-04-15T00:47:42.149Z,5.10
2018-04-15T00:50:10.206Z,5.30
2018-04-15T00:52:37.787Z,5.63
2018-04-15T00:55:05.940Z,4.70
2018-04-15T00:57:33.497Z,5.50
2018-04-15T01:00:01.807Z,5.53
2018-04-15T01:02:30.576Z,5.07
2018-04-15T01:04:58.207Z,5.70
2018-04-15T01:07:25.778Z,5.77
2018-04-15T01:09:53.326Z,4.77
2018-04-15T01:12:21.267Z,5.27
2018-04-15T01:14:48.801Z,4.73
2018-04-15T01:17:16.344Z,5.40
2018-04-15T01:19:43.921Z,5.40
2018-04-15T01:22:12.186Z,4.50
2018-04-15T01:24:39.713Z,6.20
2018-04-15T01:27:07.263Z,5.10
2018-04-15T01:29:34.812Z,5.83
2018-04-15T01:32:02.341Z,4.93
2018-04-15T01:34:30.219Z,5.50
2018-04-15T01:36:57.757Z,6.10
2018-04-15T01:39:25.323Z,6.13
2018-04-15T01:41:53.755Z,5.40
2018-04-15T01:44:22.065Z,6.20
2018-04-15T01:46:50.207Z,5.80
2018-04-15T01:49:18.883Z,5.63
2018-04-15T01:51:46.463Z,6.33
2018-04-15T01:54:14.840Z,5.33
2018-04-15T01:56:43.165Z,5.33
2018-04-15T01:59:10.689Z,6.03
2018-04-15T02:01:38.243Z,6.00
2018-04-15T02:04:06.254Z,5.83
2018-04-15T02:06:33.838Z,5.60
2018-04-15T02:09:01.364Z,5.07
2018-04-15T02:11:29.483Z,5.17
2018-04-15T02:13:57.832Z,5.97
2018-04-15T02:16:25.389Z,5.57
2018-04-15T02:18:53.217Z,6.20
2018-04-15T02:21:20.762Z,5.87
2018-04-15T02:23:49.099Z,6.70
2018-04-15T02:26:16.635Z,6.13
2018-04-15T02:28:44.170Z,5.50
2018-04-15T02:31:12.666Z,5.90
2018-04-15T02:33:40.208Z,5.90
2018-04-15T02:36:08.924Z,5.70
2018-04-15T02:38:37.221Z,6.40
2018-04-15T02:41:04.771Z,6.00
2018-04-15T02:43:32.353Z,6.40
2018-04-15T02:46:01.027Z,6.10
2018-04-15T02:48:28.825Z,6.20
2018-04-15T02:50:56.369Z,7.00
2018-04-15T02:53:23.925Z,6.37
2018-04-15T02:55:51.524Z,6.30
2018-04-15T02:58:20.790Z,6.97
2018-04-15T03:00:48.335Z,7.13
2018-04-15T03:03:15.896Z,7.07
2018-04-15T03:05:43.455Z,6.33
2018-04-15T03:08:11.017Z,7.10
2018-04-15T03:10:38.626Z,7.90
2018-04-15T03:13:06.751Z,8.37
2018-04-15T03:15:34.322Z,6.83
2018-04-15T03:18:01.869Z,7.80
2018-04-15T03:20:30.005Z,7.47
2018-04-15T03:22:57.569Z,8.07
2018-04-15T03:25:25.113Z,7.20
2018-04-15T03:27:53.432Z,7.87
2018-04-15T03:30:20.993Z,7.87
2018-04-15T03:32:49.158Z,7.80
2018-04-15T03:35:16.708Z,7.87
2018-04-15T03:37:44.242Z,8.20
2018-04-15T03:40:12.861Z,7.90
2018-04-15T03:42:41.270Z,8.00
2018-04-15T03:45:08.902Z,8.77
2018-04-15T03:47:36.991Z,8.07
2018-04-15T03:50:04.535Z,8.63
2018-04-15T03:52:32.086Z,9.43
2018-04-15T03:55:00.604Z,10.30
2018-04-15T03:57:28.135Z,10.47
2018-04-15T03:59:55.717Z,10.40
2018-04-15T04:02:23.266Z,10.40
2018-04-15T04:04:50.785Z,11.10
2018-04-15T04:07:19.115Z,11.00
2018-04-15T04:09:46.669Z,10.13
2018-04-15T04:12:14.229Z,10.93
2018-04-15T04:14:41.773Z,10.30
2018-04-15T04:17:09.730Z,11.00
2018-04-15T04:19:49.200Z,10.40
2018-04-15T04:22:28.802Z,11.00
2018-04-15T04:25:08.060Z,12.40
2018-04-15T04:27:35.593Z,11.60
2018-04-15T04:30:03.162Z,11.67
2018-04-15T04:32:30.789Z,11.80
2018-04-15T04:34:58.337Z,11.70
2018-04-15T04:37:25.927Z,10.70
2018-04-15T04:39:53.467Z,12.00
2018-04-15T04:42:21.800Z,11.70
2018-04-15T04:44:50.072Z,11.67
2018-04-15T04:47:17.609Z,11.87
2018-04-15T04:49:45.214Z,11.17
2018-04-15T04:52:12.801Z,11.00
2018-04-15T04:54:41.111Z,11.50
2018-04-15T04:57:08.674Z,12.30
2018-04-15T04:59:36.258Z,11.60
2018-04-15T05:02:03.829Z,11.00
2018-04-15T05:04:32.051Z,11.97
2018-04-15T05:07:01.099Z,10.90
2018-04-15T05:09:28.747Z,11.83
2018-04-15T05:11:56.624Z,14.20
2018-04-15T05:14:24.177Z,12.30
2018-04-15T05:16:51.757Z,11.97
2018-04-15T05:19:19.312Z,11.53
2018-04-15T05:21:46.851Z,12.20
2018-04-15T05:24:14.476Z,12.50
2018-04-15T05:26:42.877Z,11.93
2018-04-15T05:29:11.149Z,11.93
2018-04-15T05:31:40.220Z,13.70
2018-04-15T05:34:08.746Z,12.60
2018-04-15T05:36:36.336Z,12.87
2018-04-15T05:39:03.972Z,13.03
2018-04-15T05:41:31.564Z,11.40
2018-04-15T05:43:59.157Z,12.57
2018-04-15T05:46:28.338Z,12.60
2018-04-15T05:48:55.966Z,12.20
2018-04-15T05:51:23.518Z,11.30
2018-04-15T05:53:51.090Z,12.80
2018-04-15T05:56:18.981Z,12.10
2018-04-15T05:58:46.550Z,12.40
2018-04-15T06:01:14.266Z,12.40
2018-04-15T06:03:41.846Z,12.00
2018-04-15T06:06:09.872Z,12.77
2018-04-15T06:08:37.433Z,14.13
2018-04-15T06:11:08.429Z,15.00
2018-04-15T06:13:35.982Z,13.67
2018-04-15T06:16:03.569Z,13.70
2018-04-15T06:18:31.902Z,13.20
2018-04-15T06:21:00.072Z,14.07
2018-04-15T06:23:27.676Z,12.77
2018-04-15T06:25:56.114Z,11.70
2018-04-15T06:28:23.662Z,13.10
2018-04-15T06:30:51.244Z,11.37
2018-04-15T06:33:18.823Z,13.00
2018-04-15T06:35:46.629Z,12.30
2018-04-15T06:38:14.296Z,13.27
2018-04-15T06:40:41.880Z,12.17
2018-04-15T06:43:10.052Z,12.83
2018-04-15T06:45:37.606Z,12.53
2018-04-15T06:48:05.176Z,12.00
2018-04-15T06:50:32.746Z,12.67
2018-04-15T06:53:00.350Z,11.20
2018-04-15T06:55:28.781Z,12.10
2018-04-15T06:57:56.325Z,12.40
2018-04-15T07:00:23.888Z,12.10
2018-04-15T07:02:51.451Z,12.40
2018-04-15T07:05:19.061Z,12.00
2018-04-15T07:07:47.417Z,11.30
2018-04-15T07:10:14.974Z,11.70
2018-04-15T07:12:42.611Z,11.33
2018-04-15T07:15:11.100Z,11.67
2018-04-15T07:17:39.293Z,10.90
2018-04-15T07:20:06.884Z,11.23
2018-04-15T07:22:35.225Z,10.60
2018-04-15T07:25:02.760Z,11.27
2018-04-15T07:27:30.347Z,10.53
2018-04-15T07:29:58.378Z,11.60
2018-04-15T07:32:25.905Z,10.50
2018-04-15T07:34:53.653Z,9.40
2018-04-15T07:37:21.439Z,9.17
2018-04-15T07:39:49.007Z,8.50
2018-04-15T07:42:17.355Z,8.07
2018-04-15T07:44:44.946Z,9.30
2018-04-15T07:47:13.261Z,9.57
2018-04-15T07:49:40.840Z,9.70
2018-04-15T07:52:08.383Z,9.37
2018-04-15T07:54:35.969Z,8.70
2018-04-15T07:57:04.250Z,9.10
2018-04-15T07:59:31.791Z,8.47
2018-04-15T08:01:59.549Z,7.57
2018-04-15T08:04:27.135Z,7.90
2018-04-15T08:06:54.764Z,7.63
2018-04-15T08:09:22.286Z,7.20
2018-04-15T08:11:50.641Z,7.20
2018-04-15T08:14:18.190Z,7.00
2018-04-15T08:16:45.778Z,7.37
2018-04-15T08:19:13.313Z,9.33
2018-04-15T08:21:40.876Z,6.60
2018-04-15T08:24:08.403Z,6.90
2018-04-15T08:26:35.959Z,6.80
2018-04-15T08:29:03.529Z,6.77
2018-04-15T08:31:31.156Z,6.87
2018-04-15T08:34:00.927Z,5.90
2018-04-15T08:36:28.997Z,6.00
2018-04-15T08:38:57.065Z,5.63
2018-04-15T08:41:24.792Z,6.63
2018-04-15T08:43:52.417Z,5.60
2018-04-15T08:46:19.975Z,6.00
2018-04-15T08:48:47.521Z,6.73
2018-04-15T08:51:16.014Z,5.67
2018-04-15T08:53:43.546Z,6.03
2018-04-15T08:56:11.067Z,6.83
2018-04-15T08:58:38.746Z,6.10
2018-04-15T09:01:06.365Z,5.07
2018-04-15T09:03:34.691Z,5.50
2018-04-15T09:06:03.603Z,5.60
2018-04-15T09:08:31.186Z,5.47
2018-04-15T09:10:58.912Z,5.30
2018-04-15T09:13:26.490Z,4.70
2018-04-15T09:15:54.058Z,4.87
2018-04-15T09:18:21.643Z,5.23
2018-04-15T09:20:49.958Z,4.00
2018-04-15T09:23:17.503Z,4.83
2018-04-15T09:25:45.830Z,5.47
2018-04-15T09:28:13.427Z,5.10
2018-04-15T09:30:46.627Z,5.20
2018-04-15T09:33:15.005Z,5.20
2018-04-15T09:35:43.332Z,4.80
2018-04-15T09:38:10.867Z,4.50
2018-04-15T09:40:38.398Z,5.67
2018-04-15T09:43:08.489Z,5.37
2018-04-15T09:45:36.086Z,6.67
2018-04-15T09:48:04.431Z,4.40
2018-04-15T09:50:32.499Z,5.30
2018-04-15T09:53:00.930Z,6.90
2018-04-15T09:55:28.760Z,7.33
2018-04-15T09:57:57.693Z,6.13
2018-04-15T10:00:25.324Z,6.30
2018-04-15T10:02:53.645Z,4.93
2018-04-15T10:05:21.438Z,5.43
2018-04-15T10:07:48.991Z,4.53
2018-04-15T10:10:17.430Z,6.80
2018-04-15T10:12:45.029Z,6.30
2018-04-15T10:15:12.566Z,5.50
2018-04-15T10:17:41.059Z,4.43
2018-04-15T10:20:08.634Z,4.77
2018-04-15T10:22:36.180Z,6.67
2018-04-15T10:25:04.387Z,4.43
2018-04-15T10:27:32.090Z,6.80
2018-04-15T10:30:00.215Z,8.40
2018-04-15T10:32:28.965Z,6.80
2018-04-15T10:34:56.498Z,5.57
2018-04-15T10:37:24.174Z,5.63
2018-04-15T10:39:52.269Z,6.97
2018-04-15T10:42:21.329Z,5.50
2018-04-15T10:44:50.076Z,6.90
2018-04-15T10:47:19.135Z,6.53
2018-04-15T10:49:46.706Z,5.83
2018-04-15T10:52:15.196Z,5.70
2018-04-15T10:54:42.795Z,7.20
2018-04-15T10:57:11.193Z,7.00
2018-04-15T10:59:40.002Z,6.43
2018-04-15T11:02:07.570Z,5.80
2018-04-15T11:04:35.124Z,5.53
2018-04-15T11:07:02.712Z,6.07
2018-04-15T11:09:32.538Z,5.57
2018-04-15T11:12:00.950Z,6.10
2018-04-15T11:14:28.986Z,6.10
2018-04-15T11:16:57.251Z,5.43
2018-04-15T11:19:24.817Z,7.20
2018-04-15T11:21:52.395Z,6.13
2018-04-15T11:24:20.147Z,6.37
2018-04-15T11:26:47.691Z,6.97
2018-04-15T11:29:16.357Z,8.00
2018-04-15T11:31:43.961Z,6.10
2018-04-15T11:34:11.571Z,6.90
2018-04-15T11:36:39.241Z,6.60
2018-04-15T11:39:06.805Z,7.30
2018-04-15T11:41:35.338Z,6.70
2018-04-15T11:44:02.855Z,7.30
2018-04-15T11:46:31.184Z,6.60
2018-04-15T11:48:58.783Z,7.10
2018-04-15T11:51:26.392Z,6.23
2018-04-15T11:53:54.054Z,6.60
2018-04-15T11:56:23.524Z,7.60
2018-04-15T11:58:52.548Z,6.70
2018-04-15T12:01:21.297Z,6.40
2018-04-15T12:03:49.070Z,6.13
2018-04-15T12:06:16.641Z,7.13
2018-04-15T12:08:44.393Z,7.00
2018-04-15T12:11:11.941Z,7.03
2018-04-15T12:13:39.959Z,7.23
2018-04-15T12:16:08.676Z,7.70
2018-04-15T12:18:36.988Z,7.90
2018-04-15T12:21:05.277Z,7.17
2018-04-15T12:23:32.814Z,7.93
2018-04-15T12:26:01.129Z,7.93
2018-04-15T12:28:29.214Z,8.17
2018-04-15T12:30:56.807Z,8.30
2018-04-15T12:33:25.111Z,7.63
2018-04-15T12:35:52.698Z,8.00
2018-04-15T12:38:20.444Z,8.17
2018-04-15T12:40:48.050Z,8.33
2018-04-15T12:43:15.593Z,7.53
2018-04-15T12:45:43.157Z,8.10
2018-04-15T12:48:11.383Z,8.60
2018-04-15T12:50:38.951Z,8.47
2018-04-15T12:53:06.520Z,7.67
2018-04-15T12:55:34.951Z,8.67
2018-04-15T12:58:02.517Z,8.10
2018-04-15T13:00:30.869Z,8.57
2018-04-15T13:02:59.030Z,8.40
2018-04-15T13:05:26.595Z,8.53
2018-04-15T13:07:54.150Z,8.07
2018-04-15T13:10:21.765Z,8.13
2018-04-15T13:12:50.930Z,9.13
2018-04-15T13:15:18.572Z,9.00
2018-04-15T13:17:46.107Z,8.83
2018-04-15T13:20:13.660Z,8.57
2018-04-15T13:22:41.244Z,8.43
2018-04-15T13:25:08.999Z,8.10
2018-04-15T13:27:36.537Z,8.00
2018-04-15T13:30:05.263Z,8.50
2018-04-15T13:32:32.814Z,8.00
2018-04-15T13:35:01.297Z,8.03
2018-04-15T13:37:29.531Z,8.60
2018-04-15T13:39:57.891Z,9.10
2018-04-15T13:42:25.454Z,8.93
2018-04-15T13:44:53.047Z,8.73
2018-04-15T13:47:20.605Z,8.17
2018-04-15T13:49:48.222Z,8.80
2018-04-15T13:52:15.746Z,9.00
2018-04-15T13:54:43.309Z,8.07
2018-04-15T13:57:10.835Z,8.87
2018-04-15T13:59:39.116Z,9.30
2018-04-15T14:02:06.677Z,9.30
2018-04-15T14:04:34.255Z,9.10
2018-04-15T14:07:01.858Z,9.57
2018-04-15T14:09:29.993Z,9.30
2018-04-15T14:11:57.562Z,9.40
2018-04-15T14:14:25.350Z,9.30
2018-04-15T14:16:52.899Z,9.17
2018-04-15T14:19:21.326Z,9.07
2018-04-15T14:21:50.374Z,10.27
2018-04-15T14:24:17.888Z,10.87
2018-04-15T14:26:45.449Z,10.40
2018-04-15T14:29:13.049Z,11.93
2018-04-15T14:31:41.185Z,12.37
2018-04-15T14:34:08.798Z,10.77
2018-04-15T14:36:36.345Z,10.77
2018-04-15T14:39:03.908Z,10.20
2018-04-15T14:41:31.491Z,10.83
2018-04-15T14:43:59.064Z,8.27
2018-04-15T14:46:26.583Z,9.77
2018-04-15T14:48:54.755Z,9.10
2018-04-15T14:51:22.314Z,8.80
2018-04-15T14:53:50.679Z,10.57
2018-04-15T14:56:18.414Z,10.40
2018-04-15T14:58:46.458Z,9.77
2018-04-15T15:01:14.027Z,10.23
2018-04-15T15:03:41.653Z,10.73
2018-04-15T15:06:11.888Z,9.87
2018-04-15T15:08:40.616Z,9.57
2018-04-15T15:11:09.441Z,10.40
2018-04-15T15:13:37.017Z,10.13
2018-04-15T15:16:05.481Z,10.50
2018-04-15T15:18:33.181Z,10.80
2018-04-15T15:21:01.442Z,9.50
2018-04-15T15:23:30.375Z,10.30
2018-04-15T15:25:59.834Z,11.00
2018-04-15T15:28:27.568Z,11.10
2018-04-15T15:30:56.057Z,10.90
2018-04-15T15:33:24.328Z,10.73
2018-04-15T15:35:52.814Z,10.80
2018-04-15T15:38:21.096Z,10.00
2018-04-15T15:40:48.643Z,10.80
2018-04-15T15:43:16.211Z,11.10
2018-04-15T15:45:44.368Z,10.47
2018-04-15T15:48:11.966Z,9.63
2018-04-15T15:50:40.368Z,10.23
2018-04-15T15:53:07.994Z,9.70
2018-04-15T15:55:36.059Z,11.00
2018-04-15T15:58:04.537Z,10.80
2018-04-15T16:00:32.101Z,12.30
2018-04-15T16:03:00.454Z,11.30
2018-04-15T16:05:30.124Z,11.27
2018-04-15T16:07:58.421Z,10.57
2018-04-15T16:10:25.979Z,10.10
2018-04-15T16:12:53.553Z,10.43
2018-04-15T16:15:22.084Z,9.90
2018-04-15T16:17:50.509Z,11.10
2018-04-15T16:20:18.239Z,11.00
2018-04-15T16:22:45.824Z,10.43
2018-04-15T16:25:13.436Z,11.50
2018-04-15T16:27:40.980Z,11.10
2018-04-15T16:30:08.831Z,10.47
2018-04-15T16:32:36.408Z,10.10
2018-04-15T16:35:03.977Z,12.37
2018-04-15T16:37:31.541Z,11.90
2018-04-15T16:39:59.095Z,12.20
2018-04-15T16:42:26.856Z,11.40
2018-04-15T16:44:54.442Z,12.10
2018-04-15T16:47:22.435Z,12.07
2018-04-15T16:49:50.782Z,15.17
2018-04-15T16:52:19.160Z,13.87
2018-04-15T16:54:46.767Z,16.93
2018-04-15T16:57:15.132Z,16.33
2018-04-15T16:59:42.754Z,20.10
2018-04-15T17:02:10.401Z,15.20
2018-04-15T17:04:37.930Z,13.03
2018-04-15T17:07:05.490Z,12.30
2018-04-15T17:09:33.331Z,11.50
2018-04-15T17:12:01.662Z,12.07
2018-04-15T17:14:30.842Z,11.20
2018-04-15T17:16:59.191Z,12.30
2018-04-15T17:19:27.819Z,11.20
2018-04-15T17:21:55.414Z,10.83
2018-04-15T17:24:22.947Z,11.73
2018-04-15T17:26:51.324Z,10.27
2018-04-15T17:29:20.064Z,10.60
2018-04-15T17:31:47.607Z,9.97
2018-04-15T17:34:15.404Z,9.87
2018-04-15T17:36:43.724Z,9.60
2018-04-15T17:39:11.366Z,9.37
2018-04-15T17:41:38.947Z,9.90
2018-04-15T17:44:06.841Z,9.00
2018-04-15T17:46:34.513Z,9.57
2018-04-15T17:49:02.190Z,9.30
2018-04-15T17:51:30.356Z,9.40
2018-04-15T17:53:57.886Z,9.37
2018-04-15T17:56:26.137Z,8.87
2018-04-15T17:58:53.737Z,10.17
2018-04-15T18:01:21.276Z,10.77
2018-04-15T18:03:50.174Z,10.90
2018-04-15T18:06:17.742Z,10.20
2018-04-15T18:08:46.162Z,11.70
2018-04-15T18:11:14.690Z,11.57
2018-04-15T18:13:42.269Z,10.87
2018-04-15T18:16:10.413Z,11.70
2018-04-15T18:18:37.995Z,10.50
2018-04-15T18:21:05.678Z,12.03
2018-04-15T18:23:33.289Z,10.70
2018-04-15T18:26:02.358Z,10.50
2018-04-15T18:28:31.442Z,11.27
2018-04-15T18:31:01.938Z,10.33
2018-04-15T18:33:30.083Z,9.70
2018-04-15T18:35:58.661Z,11.80
2018-04-15T18:38:26.224Z,10.63
2018-04-15T18:40:54.638Z,10.43
2018-04-15T18:43:22.197Z,11.17
2018-04-15T18:45:50.386Z,10.30
2018-04-15T18:48:17.962Z,10.93
2018-04-15T18:50:45.578Z,11.37
2018-04-15T18:53:13.119Z,11.60
2018-04-15T18:55:41.550Z,10.80
2018-04-15T18:58:09.498Z,10.77
2018-04-15T19:00:37.237Z,10.37
2018-04-15T19:03:04.833Z,11.10
2018-04-15T19:05:32.418Z,11.00
2018-04-15T19:08:00.046Z,11.20
2018-04-15T19:10:28.149Z,10.30
2018-04-15T19:12:55.721Z,11.33
2018-04-15T19:15:23.273Z,12.57
2018-04-15T19:17:50.975Z,11.93
2018-04-15T19:20:19.514Z,12.43
2018-04-15T19:22:47.251Z,14.30
2018-04-15T19:25:14.852Z,13.13
2018-04-15T19:27:43.162Z,14.90
2018-04-15T19:30:12.042Z,14.40
2018-04-15T19:32:41.147Z,13.03
2018-04-15T19:35:08.841Z,13.20
2018-04-15T19:37:37.211Z,13.60
2018-04-15T19:40:04.885Z,12.80
2018-04-15T19:42:32.604Z,13.30
2018-04-15T19:45:01.187Z,12.53
2018-04-15T19:47:28.890Z,10.87
2018-04-15T19:49:56.487Z,11.40
2018-04-15T19:52:24.900Z,12.37
2018-04-15T19:54:53.213Z,9.97
2018-04-15T19:57:20.796Z,12.63
2018-04-15T19:59:48.846Z,11.90
2018-04-15T20:02:16.412Z,12.13
2018-04-15T20:04:43.972Z,12.20
2018-04-15T20:07:11.546Z,10.93
2018-04-15T20:09:39.135Z,11.47
2018-04-15T20:12:08.255Z,11.07
2018-04-15T20:14:35.879Z,12.07
2018-04-15T20:17:04.360Z,11.03
2018-04-15T20:19:31.936Z,10.97
2018-04-15T20:22:00.282Z,11.00
2018-04-15T20:24:29.598Z,10.70
2018-04-15T20:26:58.008Z,9.73
2018-04-15T20:29:26.367Z,9.97
2018-04-15T20:31:53.950Z,11.40
2018-04-15T20:34:22.257Z,11.27
2018-04-15T20:36:50.438Z,11.73
2018-04-15T20:39:17.981Z,11.97
2018-04-15T20:41:46.158Z,10.70
2018-04-15T20:44:14.599Z,12.23
2018-04-15T20:46:42.278Z,12.20
2018-04-15T20:49:10.591Z,12.30
2018-04-15T20:51:38.315Z,12.10
2018-04-15T20:54:06.675Z,11.90
2018-04-15T20:56:35.853Z,11.90
2018-04-15T20:59:03.433Z,10.87
2018-04-15T21:01:30.974Z,11.40
2018-04-15T21:03:59.636Z,11.73
2018-04-15T21:06:27.232Z,10.90
2018-04-15T21:08:56.131Z,10.77
2018-04-15T21:11:23.806Z,11.67
2018-04-15T21:13:52.281Z,11.20
2018-04-15T21:16:20.715Z,11.73
2018-04-15T21:18:48.769Z,10.63
2018-04-15T21:21:16.377Z,11.20
2018-04-15T21:23:43.966Z,11.70
2018-04-15T21:26:11.923Z,13.20
2018-04-15T21:28:40.589Z,11.50
2018-04-15T21:31:08.249Z,12.47
2018-04-15T21:33:35.816Z,12.33
2018-04-15T21:36:03.363Z,10.77
2018-04-15T21:38:30.958Z,11.67
2018-04-15T21:40:58.782Z,11.57
2018-04-15T21:43:26.379Z,11.60
2018-04-15T21:45:54.845Z,12.37
2018-04-15T21:48:22.387Z,12.07
2018-04-15T21:50:49.972Z,11.60
2018-04-15T21:53:20.280Z,11.53
2018-04-15T21:55:47.837Z,11.30
2018-04-15T21:58:15.404Z,12.57
2018-04-15T22:00:43.621Z,11.73
2018-04-15T22:03:11.202Z,12.37
2018-04-15T22:05:38.973Z,13.03
2018-04-15T22:08:06.730Z,12.60
2018-04-15T22:10:35.505Z,11.77
2018-04-15T22:13:09.865Z,11.73
2018-04-15T22:15:37.634Z,12.40
2018-04-15T22:18:05.757Z,12.67
2018-04-15T22:20:34.199Z,11.93
2018-04-15T22:23:01.779Z,12.03
2018-04-15T22:25:30.994Z,13.20
2018-04-15T22:27:58.853Z,12.67
2018-04-15T22:30:26.379Z,12.87
2018-04-15T22:32:53.945Z,13.40
2018-04-15T22:35:21.488Z,12.90
2018-04-15T22:37:49.058Z,13.40
2018-04-15T22:40:16.620Z,13.20
2018-04-15T22:42:44.185Z,12.13
2018-04-15T22:45:12.561Z,13.97
2018-04-15T22:47:46.515Z,12.63
2018-04-15T22:50:18.110Z,12.83
2018-04-15T22:52:45.694Z,12.70
2018-04-15T22:55:14.721Z,12.40
2018-04-15T22:57:43.951Z,12.67
2018-04-15T23:00:11.495Z,12.00
2018-04-15T23:02:39.095Z,12.30
2018-04-15T23:05:06.952Z,12.73
2018-04-15T23:07:34.546Z,12.50
2018-04-15T23:10:02.893Z,12.97
2018-04-15T23:12:32.379Z,11.30
2018-04-15T23:15:00.650Z,12.17
2018-04-15T23:17:28.194Z,12.87
2018-04-15T23:19:55.757Z,12.40
2018-04-15T23:22:23.327Z,12.80
2018-04-15T23:24:51.521Z,12.97
2018-04-15T23:27:20.022Z,13.43
2018-04-15T23:29:47.623Z,12.17
2018-04-15T23:32:15.196Z,12.70
2018-04-15T23:34:42.778Z,14.17
2018-04-15T23:37:10.346Z,14.20
2018-04-15T23:39:39.169Z,13.13
2018-04-15T23:42:06.735Z,13.90
2018-04-15T23:44:35.088Z,13.80
2018-04-15T23:47:03.458Z,14.40
2018-04-15T23:49:30.985Z,13.30
2018-04-15T23:51:58.561Z,13.53
2018-04-15T23:54:26.106Z,13.03
2018-04-15T23:56:55.597Z,13.63
2018-04-15T23:59:23.197Z,12.60
